Henley, Missouri
Current Conditions -  °F | °C
As of 2:53 AM on Thursday 23 Oct 2014 (Local Time) from KJEF Reporting Station
Clear Clear  
Wind Chill: 44°   Ceiling: Unl
Heat Index: 46°   Visibility: 10mi
Dew Point: 41°   Wind: 5mph
Humidity: 83%   Direction: 100°E
Pressure: 30.18"   Gusts: NA
Location:  38.34°N, 92.32°W
Report Text: KJEF 230753Z AUTO 10004KT 10SM CLR 08/05 A3018 RMK AO2 SLP211 T00780050
Loading
Personal Weather Stations






























Interactive Weather Map
Tropical Storm Tracking
New forecast layout! Learn more

10-Day Weather Forecast

Advertisements
Track Severe Weather on mobile